sensor_id;sensor_type;location;lat;lon;timestamp;pressure;altitude;pressure_sealevel;temperature;humidity
15229;BME280;7717;47.792;12.076;2023-03-14T00:01:22;94772.66;;;10.28;100.00
15229;BME280;7717;47.792;12.076;2023-03-14T00:03:48;94782.53;;;10.09;100.00
15229;BME280;7717;47.792;12.076;2023-03-14T00:06:14;94792.84;;;10.06;100.00
15229;BME280;7717;47.792;12.076;2023-03-14T00:08:41;94789.25;;;9.79;100.00
15229;BME280;7717;47.792;12.076;2023-03-14T00:11:13;94770.88;;;9.64;100.00
15229;BME280;7717;47.792;12.076;2023-03-14T00:13:39;94759.06;;;9.23;100.00
15229;BME280;7717;47.792;12.076;2023-03-14T00:16:05;94766.69;;;9.24;100.00
15229;BME280;7717;47.792;12.076;2023-03-14T00:18:32;94761.69;;;9.18;100.00
15229;BME280;7717;47.792;12.076;2023-03-14T00:20:58;94747.38;;;9.11;100.00
15229;BME280;7717;47.792;12.076;2023-03-14T00:23:24;94737.25;;;9.08;100.00
15229;BME280;7717;47.792;12.076;2023-03-14T00:25:49;94718.63;;;9.04;100.00
15229;BME280;7717;47.792;12.076;2023-03-14T00:28:15;94704.03;;;9.09;100.00
15229;BME280;7717;47.792;12.076;2023-03-14T00:30:40;94695.72;;;9.01;100.00
15229;BME280;7717;47.792;12.076;2023-03-14T00:33:05;94699.16;;;8.98;100.00
15229;BME280;7717;47.792;12.076;2023-03-14T00:35:31;94685.34;;;8.70;100.00
15229;BME280;7717;47.792;12.076;2023-03-14T00:37:56;94673.59;;;8.62;100.00
15229;BME280;7717;47.792;12.076;2023-03-14T00:40:21;94687.13;;;8.66;100.00
15229;BME280;7717;47.792;12.076;2023-03-14T00:42:47;94701.63;;;8.62;100.00
15229;BME280;7717;47.792;12.076;2023-03-14T00:45:12;94693.38;;;8.51;100.00
15229;BME280;7717;47.792;12.076;2023-03-14T00:47:37;94700.44;;;8.37;100.00
15229;BME280;7717;47.792;12.076;2023-03-14T00:50:03;94710.25;;;8.58;100.00
15229;BME280;7717;47.792;12.076;2023-03-14T00:52:29;94724.91;;;8.49;100.00
15229;BME280;7717;47.792;12.076;2023-03-14T00:54:54;94723.19;;;8.49;100.00
15229;BME280;7717;47.792;12.076;2023-03-14T00:57:19;94718.19;;;8.43;100.00
15229;BME280;7717;47.792;12.076;2023-03-14T00:59:45;94725.00;;;8.42;100.00
15229;BME280;7717;47.792;12.076;2023-03-14T01:02:10;94733.50;;;8.41;100.00
15229;BME280;7717;47.792;12.076;2023-03-14T01:04:35;94736.81;;;8.46;100.00
15229;BME280;7717;47.792;12.076;2023-03-14T01:07:03;94728.44;;;8.40;100.00
15229;BME280;7717;47.792;12.076;2023-03-14T01:09:28;94720.78;;;8.40;100.00
15229;BME280;7717;47.792;12.076;2023-03-14T01:11:55;94713.88;;;8.46;100.00
15229;BME280;7717;47.792;12.076;2023-03-14T01:14:20;94714.41;;;8.62;100.00
15229;BME280;7717;47.792;12.076;2023-03-14T01:16:45;94707.44;;;8.71;100.00
15229;BME280;7717;47.792;12.076;2023-03-14T01:19:11;94707.59;;;8.63;100.00
15229;BME280;7717;47.792;12.076;2023-03-14T01:21:36;94699.91;;;8.64;100.00
15229;BME280;7717;47.792;12.076;2023-03-14T01:24:03;94713.31;;;8.74;100.00
15229;BME280;7717;47.792;12.076;2023-03-14T01:26:30;94712.50;;;8.72;100.00
15229;BME280;7717;47.792;12.076;2023-03-14T01:28:56;94722.97;;;8.60;100.00
15229;BME280;7717;47.792;12.076;2023-03-14T01:31:23;94726.16;;;8.70;100.00
15229;BME280;7717;47.792;12.076;2023-03-14T01:33:49;94746.63;;;8.67;100.00
15229;BME280;7717;47.792;12.076;2023-03-14T01:36:14;94724.81;;;8.52;100.00
15229;BME280;7717;47.792;12.076;2023-03-14T01:38:40;94722.69;;;8.74;100.00
15229;BME280;7717;47.792;12.076;2023-03-14T01:41:07;94727.59;;;8.83;100.00
15229;BME280;7717;47.792;12.076;2023-03-14T01:43:33;94729.22;;;8.86;100.00
15229;BME280;7717;47.792;12.076;2023-03-14T01:48:59;94725.03;;;8.83;100.00
15229;BME280;7717;47.792;12.076;2023-03-14T01:54:21;94717.41;;;8.81;100.00
15229;BME280;7717;47.792;12.076;2023-03-14T01:56:54;94706.50;;;8.75;100.00
15229;BME280;7717;47.792;12.076;2023-03-14T01:59:22;94693.41;;;8.90;100.00
15229;BME280;7717;47.792;12.076;2023-03-14T02:01:48;94691.50;;;8.98;100.00
15229;BME280;7717;47.792;12.076;2023-03-14T02:04:17;94689.66;;;9.07;100.00
15229;BME280;7717;47.792;12.076;2023-03-14T02:06:49;94685.19;;;9.15;100.00
15229;BME280;7717;47.792;12.076;2023-03-14T02:09:15;94691.91;;;9.19;100.00
15229;BME280;7717;47.792;12.076;2023-03-14T02:11:41;94697.84;;;9.19;100.00
15229;BME280;7717;47.792;12.076;2023-03-14T02:14:07;94692.59;;;9.26;100.00
15229;BME280;7717;47.792;12.076;2023-03-14T02:16:35;94693.44;;;9.26;100.00
15229;BME280;7717;47.792;12.076;2023-03-14T02:19:01;94699.53;;;9.21;100.00
15229;BME280;7717;47.792;12.076;2023-03-14T02:22:05;94715.63;;;9.24;100.00
15229;BME280;7717;47.792;12.076;2023-03-14T02:24:38;94737.88;;;9.19;100.00
15229;BME280;7717;47.792;12.076;2023-03-14T02:27:11;94732.69;;;9.22;100.00
15229;BME280;7717;47.792;12.076;2023-03-14T02:29:40;94751.34;;;9.24;100.00
15229;BME280;7717;47.792;12.076;2023-03-14T02:32:09;94752.31;;;9.18;100.00
15229;BME280;7717;47.792;12.076;2023-03-14T02:34:35;94754.88;;;9.18;100.00
15229;BME280;7717;47.792;12.076;2023-03-14T02:37:02;94741.94;;;9.26;100.00
15229;BME280;7717;47.792;12.076;2023-03-14T02:39:36;94743.16;;;9.47;100.00
15229;BME280;7717;47.792;12.076;2023-03-14T02:42:01;94748.34;;;9.44;100.00
15229;BME280;7717;47.792;12.076;2023-03-14T02:44:27;94769.69;;;9.42;100.00
15229;BME280;7717;47.792;12.076;2023-03-14T02:46:53;94769.09;;;9.30;100.00
15229;BME280;7717;47.792;12.076;2023-03-14T02:49:18;94767.00;;;9.48;100.00
15229;BME280;7717;47.792;12.076;2023-03-14T02:51:45;94778.97;;;9.46;100.00
15229;BME280;7717;47.792;12.076;2023-03-14T02:54:11;94768.53;;;9.55;100.00
15229;BME280;7717;47.792;12.076;2023-03-14T02:56:36;94758.38;;;9.52;100.00
15229;BME280;7717;47.792;12.076;2023-03-14T02:59:05;94752.41;;;9.51;100.00
15229;BME280;7717;47.792;12.076;2023-03-14T03:01:31;94758.53;;;9.82;100.00
15229;BME280;7717;47.792;12.076;2023-03-14T03:03:56;94749.50;;;9.67;100.00
15229;BME280;7717;47.792;12.076;2023-03-14T03:06:22;94739.97;;;9.73;100.00
15229;BME280;7717;47.792;12.076;2023-03-14T03:08:47;94754.09;;;9.88;100.00
15229;BME280;7717;47.792;12.076;2023-03-14T03:11:12;94751.66;;;9.84;100.00
15229;BME280;7717;47.792;12.076;2023-03-14T03:13:38;94756.41;;;9.98;100.00
15229;BME280;7717;47.792;12.076;2023-03-14T03:16:03;94750.47;;;9.97;100.00
15229;BME280;7717;47.792;12.076;2023-03-14T03:18:29;94747.25;;;9.89;100.00
15229;BME280;7717;47.792;12.076;2023-03-14T03:20:54;94749.81;;;9.89;100.00
15229;BME280;7717;47.792;12.076;2023-03-14T03:23:20;94748.06;;;9.91;100.00
15229;BME280;7717;47.792;12.076;2023-03-14T03:25:49;94753.38;;;9.83;100.00
15229;BME280;7717;47.792;12.076;2023-03-14T03:28:15;94758.44;;;9.85;100.00
15229;BME280;7717;47.792;12.076;2023-03-14T03:30:41;94765.38;;;9.80;100.00
15229;BME280;7717;47.792;12.076;2023-03-14T03:33:06;94757.84;;;9.73;100.00
15229;BME280;7717;47.792;12.076;2023-03-14T03:35:32;94758.09;;;9.64;100.00
15229;BME280;7717;47.792;12.076;2023-03-14T03:37:58;94749.59;;;9.62;100.00
15229;BME280;7717;47.792;12.076;2023-03-14T03:40:23;94761.00;;;9.49;100.00
15229;BME280;7717;47.792;12.076;2023-03-14T03:42:48;94744.06;;;9.45;100.00
15229;BME280;7717;47.792;12.076;2023-03-14T03:45:14;94739.91;;;9.41;100.00
15229;BME280;7717;47.792;12.076;2023-03-14T03:47:39;94734.69;;;9.45;100.00
15229;BME280;7717;47.792;12.076;2023-03-14T03:50:05;94718.56;;;9.43;100.00
15229;BME280;7717;47.792;12.076;2023-03-14T03:52:31;94708.47;;;9.39;100.00
15229;BME280;7717;47.792;12.076;2023-03-14T03:54:56;94697.53;;;9.33;100.00
15229;BME280;7717;47.792;12.076;2023-03-14T03:57:21;94683.44;;;9.17;100.00
15229;BME280;7717;47.792;12.076;2023-03-14T03:59:47;94688.47;;;9.20;100.00
15229;BME280;7717;47.792;12.076;2023-03-14T04:02:12;94696.19;;;9.17;100.00
15229;BME280;7717;47.792;12.076;2023-03-14T04:04:37;94687.84;;;9.10;100.00
15229;BME280;7717;47.792;12.076;2023-03-14T04:07:05;94683.56;;;9.11;100.00
15229;BME280;7717;47.792;12.076;2023-03-14T04:09:31;94692.00;;;9.16;100.00
15229;BME280;7717;47.792;12.076;2023-03-14T04:11:56;94695.34;;;9.18;100.00
15229;BME280;7717;47.792;12.076;2023-03-14T04:14:22;94703.97;;;9.12;100.00
15229;BME280;7717;47.792;12.076;2023-03-14T04:16:47;94705.91;;;9.01;100.00
15229;BME280;7717;47.792;12.076;2023-03-14T04:19:13;94711.00;;;9.03;100.00
15229;BME280;7717;47.792;12.076;2023-03-14T04:21:38;94713.72;;;8.95;100.00
15229;BME280;7717;47.792;12.076;2023-03-14T04:24:09;94697.56;;;8.94;100.00
15229;BME280;7717;47.792;12.076;2023-03-14T04:26:34;94696.69;;;8.95;100.00
15229;BME280;7717;47.792;12.076;2023-03-14T04:28:59;94694.84;;;9.02;100.00
15229;BME280;7717;47.792;12.076;2023-03-14T04:31:25;94692.13;;;9.10;100.00
15229;BME280;7717;47.792;12.076;2023-03-14T04:33:51;94687.31;;;8.97;100.00
15229;BME280;7717;47.792;12.076;2023-03-14T04:36:16;94697.50;;;8.97;100.00
15229;BME280;7717;47.792;12.076;2023-03-14T04:38:41;94685.72;;;8.92;100.00
15229;BME280;7717;47.792;12.076;2023-03-14T04:41:07;94677.84;;;9.01;100.00
15229;BME280;7717;47.792;12.076;2023-03-14T04:43:32;94685.44;;;9.04;100.00
15229;BME280;7717;47.792;12.076;2023-03-14T04:45:58;94682.56;;;9.18;100.00
15229;BME280;7717;47.792;12.076;2023-03-14T04:48:24;94670.84;;;9.09;100.00
15229;BME280;7717;47.792;12.076;2023-03-14T04:50:50;94683.84;;;8.98;100.00
15229;BME280;7717;47.792;12.076;2023-03-14T04:53:17;94680.22;;;9.09;100.00
15229;BME280;7717;47.792;12.076;2023-03-14T04:55:47;94680.69;;;8.89;100.00
15229;BME280;7717;47.792;12.076;2023-03-14T04:58:13;94680.78;;;8.84;100.00
15229;BME280;7717;47.792;12.076;2023-03-14T05:00:38;94672.47;;;9.13;100.00
15229;BME280;7717;47.792;12.076;2023-03-14T05:03:03;94671.41;;;9.22;100.00
15229;BME280;7717;47.792;12.076;2023-03-14T05:05:29;94652.03;;;9.13;100.00
15229;BME280;7717;47.792;12.076;2023-03-14T05:07:54;94643.19;;;9.28;100.00
15229;BME280;7717;47.792;12.076;2023-03-14T05:10:20;94645.84;;;9.24;100.00
15229;BME280;7717;47.792;12.076;2023-03-14T05:12:45;94643.59;;;9.46;100.00
15229;BME280;7717;47.792;12.076;2023-03-14T05:15:11;94635.13;;;9.44;100.00
15229;BME280;7717;47.792;12.076;2023-03-14T05:17:36;94612.28;;;9.37;100.00
15229;BME280;7717;47.792;12.076;2023-03-14T05:20:02;94622.47;;;9.05;100.00
15229;BME280;7717;47.792;12.076;2023-03-14T05:22:33;94603.81;;;9.37;100.00
15229;BME280;7717;47.792;12.076;2023-03-14T05:24:58;94595.97;;;9.10;100.00
15229;BME280;7717;47.792;12.076;2023-03-14T05:27:24;94595.28;;;9.04;100.00
15229;BME280;7717;47.792;12.076;2023-03-14T05:29:49;94601.75;;;9.17;100.00
15229;BME280;7717;47.792;12.076;2023-03-14T05:32:14;94592.81;;;9.00;100.00
15229;BME280;7717;47.792;12.076;2023-03-14T05:34:40;94585.31;;;8.94;100.00
15229;BME280;7717;47.792;12.076;2023-03-14T05:37:05;94577.78;;;8.88;100.00
15229;BME280;7717;47.792;12.076;2023-03-14T05:39:32;94579.63;;;8.83;100.00
15229;BME280;7717;47.792;12.076;2023-03-14T05:41:57;94570.00;;;8.94;100.00
15229;BME280;7717;47.792;12.076;2023-03-14T05:44:23;94566.72;;;8.89;100.00
15229;BME280;7717;47.792;12.076;2023-03-14T05:46:48;94561.91;;;8.77;100.00
15229;BME280;7717;47.792;12.076;2023-03-14T05:49:14;94556.59;;;8.86;100.00
15229;BME280;7717;47.792;12.076;2023-03-14T05:51:39;94549.00;;;8.83;100.00
15229;BME280;7717;47.792;12.076;2023-03-14T05:54:04;94539.09;;;8.71;100.00
15229;BME280;7717;47.792;12.076;2023-03-14T05:56:30;94548.25;;;8.78;100.00
15229;BME280;7717;47.792;12.076;2023-03-14T05:58:55;94538.94;;;8.77;100.00
15229;BME280;7717;47.792;12.076;2023-03-14T06:01:21;94541.38;;;8.81;100.00
15229;BME280;7717;47.792;12.076;2023-03-14T06:03:46;94561.88;;;8.78;100.00
15229;BME280;7717;47.792;12.076;2023-03-14T06:06:11;94553.03;;;8.92;100.00
15229;BME280;7717;47.792;12.076;2023-03-14T06:08:37;94561.59;;;8.91;100.00
15229;BME280;7717;47.792;12.076;2023-03-14T06:11:03;94556.66;;;8.83;100.00
15229;BME280;7717;47.792;12.076;2023-03-14T06:13:28;94550.63;;;8.86;100.00
15229;BME280;7717;47.792;12.076;2023-03-14T06:15:54;94539.38;;;8.94;100.00
15229;BME280;7717;47.792;12.076;2023-03-14T06:18:19;94535.16;;;8.92;100.00
15229;BME280;7717;47.792;12.076;2023-03-14T06:20:44;94520.94;;;8.83;100.00
15229;BME280;7717;47.792;12.076;2023-03-14T06:23:13;94528.59;;;8.83;100.00
15229;BME280;7717;47.792;12.076;2023-03-14T06:25:38;94532.88;;;8.81;100.00
15229;BME280;7717;47.792;12.076;2023-03-14T06:28:04;94515.16;;;8.75;100.00
15229;BME280;7717;47.792;12.076;2023-03-14T06:30:29;94516.75;;;8.80;100.00
15229;BME280;7717;47.792;12.076;2023-03-14T06:32:55;94506.84;;;8.68;100.00
15229;BME280;7717;47.792;12.076;2023-03-14T06:35:21;94507.22;;;8.87;100.00
15229;BME280;7717;47.792;12.076;2023-03-14T06:37:46;94510.00;;;8.78;100.00
15229;BME280;7717;47.792;12.076;2023-03-14T06:40:13;94488.56;;;8.85;100.00
15229;BME280;7717;47.792;12.076;2023-03-14T06:42:42;94499.72;;;8.81;100.00
15229;BME280;7717;47.792;12.076;2023-03-14T06:45:08;94508.03;;;8.89;100.00
15229;BME280;7717;47.792;12.076;2023-03-14T06:47:34;94508.69;;;8.97;100.00
15229;BME280;7717;47.792;12.076;2023-03-14T06:49:59;94497.50;;;9.01;100.00
15229;BME280;7717;47.792;12.076;2023-03-14T06:52:25;94528.19;;;8.98;100.00
15229;BME280;7717;47.792;12.076;2023-03-14T06:54:50;94522.38;;;8.93;100.00
15229;BME280;7717;47.792;12.076;2023-03-14T06:57:15;94535.53;;;9.11;100.00
15229;BME280;7717;47.792;12.076;2023-03-14T06:59:41;94535.06;;;9.29;100.00
15229;BME280;7717;47.792;12.076;2023-03-14T07:02:10;94537.38;;;9.06;100.00
15229;BME280;7717;47.792;12.076;2023-03-14T07:04:36;94539.69;;;9.15;100.00
15229;BME280;7717;47.792;12.076;2023-03-14T07:07:01;94537.94;;;9.17;100.00
15229;BME280;7717;47.792;12.076;2023-03-14T07:09:27;94535.97;;;9.28;100.00
15229;BME280;7717;47.792;12.076;2023-03-14T07:11:52;94534.28;;;9.27;100.00
15229;BME280;7717;47.792;12.076;2023-03-14T07:14:18;94526.84;;;9.18;100.00
15229;BME280;7717;47.792;12.076;2023-03-14T07:16:43;94519.16;;;9.19;100.00
15229;BME280;7717;47.792;12.076;2023-03-14T07:19:08;94521.84;;;9.15;100.00
15229;BME280;7717;47.792;12.076;2023-03-14T07:21:34;94527.03;;;9.43;100.00
15229;BME280;7717;47.792;12.076;2023-03-14T07:24:02;94521.81;;;9.48;100.00
15229;BME280;7717;47.792;12.076;2023-03-14T07:26:28;94533.22;;;9.34;100.00
15229;BME280;7717;47.792;12.076;2023-03-14T07:28:53;94536.59;;;9.04;100.00
15229;BME280;7717;47.792;12.076;2023-03-14T07:31:18;94546.88;;;9.00;100.00
15229;BME280;7717;47.792;12.076;2023-03-14T07:33:44;94543.34;;;9.05;100.00
15229;BME280;7717;47.792;12.076;2023-03-14T07:36:09;94534.47;;;9.19;100.00
15229;BME280;7717;47.792;12.076;2023-03-14T07:38:35;94541.53;;;9.10;100.00
15229;BME280;7717;47.792;12.076;2023-03-14T07:41:02;94543.31;;;9.06;100.00
15229;BME280;7717;47.792;12.076;2023-03-14T07:43:28;94535.53;;;9.11;100.00
15229;BME280;7717;47.792;12.076;2023-03-14T07:45:54;94547.66;;;9.03;100.00
15229;BME280;7717;47.792;12.076;2023-03-14T07:48:19;94554.25;;;8.77;100.00
15229;BME280;7717;47.792;12.076;2023-03-14T07:50:49;94551.94;;;9.02;100.00
15229;BME280;7717;47.792;12.076;2023-03-14T07:53:15;94555.31;;;9.03;100.00
15229;BME280;7717;47.792;12.076;2023-03-14T07:55:40;94557.03;;;9.02;100.00
15229;BME280;7717;47.792;12.076;2023-03-14T07:58:05;94559.59;;;9.02;100.00
15229;BME280;7717;47.792;12.076;2023-03-14T08:00:31;94563.88;;;9.00;100.00
15229;BME280;7717;47.792;12.076;2023-03-14T08:02:57;94559.63;;;9.00;100.00
15229;BME280;7717;47.792;12.076;2023-03-14T08:05:22;94561.44;;;8.95;100.00
15229;BME280;7717;47.792;12.076;2023-03-14T08:07:48;94563.06;;;8.99;100.00
15229;BME280;7717;47.792;12.076;2023-03-14T08:10:13;94552.81;;;9.01;100.00
15229;BME280;7717;47.792;12.076;2023-03-14T08:12:46;94560.53;;;8.98;100.00
15229;BME280;7717;47.792;12.076;2023-03-14T08:15:11;94554.50;;;9.02;100.00
15229;BME280;7717;47.792;12.076;2023-03-14T08:17:36;94546.91;;;8.99;100.00
15229;BME280;7717;47.792;12.076;2023-03-14T08:20:02;94562.22;;;8.99;100.00
15229;BME280;7717;47.792;12.076;2023-03-14T08:22:31;94550.06;;;9.09;100.00
15229;BME280;7717;47.792;12.076;2023-03-14T08:24:57;94552.00;;;8.99;100.00
15229;BME280;7717;47.792;12.076;2023-03-14T08:27:22;94559.63;;;9.00;100.00
15229;BME280;7717;47.792;12.076;2023-03-14T08:29:48;94552.63;;;9.09;100.00
15229;BME280;7717;47.792;12.076;2023-03-14T08:32:13;94544.91;;;9.10;100.00
15229;BME280;7717;47.792;12.076;2023-03-14T08:34:38;94546.81;;;9.04;100.00
15229;BME280;7717;47.792;12.076;2023-03-14T08:37:05;94544.84;;;9.13;100.00
15229;BME280;7717;47.792;12.076;2023-03-14T08:39:30;94542.47;;;9.06;100.00
15229;BME280;7717;47.792;12.076;2023-03-14T08:41:56;94542.63;;;8.99;100.00
15229;BME280;7717;47.792;12.076;2023-03-14T08:44:21;94538.09;;;9.11;100.00
15229;BME280;7717;47.792;12.076;2023-03-14T08:46:47;94548.97;;;9.19;100.00
15229;BME280;7717;47.792;12.076;2023-03-14T08:49:12;94554.19;;;9.14;100.00
15229;BME280;7717;47.792;12.076;2023-03-14T08:51:39;94556.09;;;9.05;100.00
15229;BME280;7717;47.792;12.076;2023-03-14T08:54:04;94553.56;;;9.05;100.00
15229;BME280;7717;47.792;12.076;2023-03-14T08:56:30;94558.50;;;9.11;100.00
15229;BME280;7717;47.792;12.076;2023-03-14T08:58:56;94550.16;;;9.39;100.00
15229;BME280;7717;47.792;12.076;2023-03-14T09:01:21;94564.44;;;9.46;100.00
15229;BME280;7717;47.792;12.076;2023-03-14T09:03:49;94560.13;;;9.48;100.00
15229;BME280;7717;47.792;12.076;2023-03-14T09:06:15;94563.50;;;9.48;100.00
15229;BME280;7717;47.792;12.076;2023-03-14T09:08:43;94564.63;;;9.71;100.00
15229;BME280;7717;47.792;12.076;2023-03-14T09:11:08;94568.53;;;9.83;100.00
15229;BME280;7717;47.792;12.076;2023-03-14T09:13:34;94567.91;;;9.75;100.00
15229;BME280;7717;47.792;12.076;2023-03-14T09:15:59;94563.91;;;9.66;100.00
15229;BME280;7717;47.792;12.076;2023-03-14T09:18:25;94586.09;;;9.64;100.00
15229;BME280;7717;47.792;12.076;2023-03-14T09:20:50;94570.63;;;9.68;100.00
15229;BME280;7717;47.792;12.076;2023-03-14T09:23:15;94582.13;;;9.85;100.00
15229;BME280;7717;47.792;12.076;2023-03-14T09:25:41;94593.94;;;9.56;100.00
15229;BME280;7717;47.792;12.076;2023-03-14T09:28:06;94594.78;;;9.58;100.00
15229;BME280;7717;47.792;12.076;2023-03-14T09:30:32;94602.94;;;9.38;100.00
15229;BME280;7717;47.792;12.076;2023-03-14T09:32:57;94608.81;;;9.42;100.00
15229;BME280;7717;47.792;12.076;2023-03-14T09:35:24;94607.63;;;9.55;100.00
15229;BME280;7717;47.792;12.076;2023-03-14T09:37:50;94615.50;;;9.46;100.00
15229;BME280;7717;47.792;12.076;2023-03-14T09:40:16;94625.91;;;9.38;100.00
15229;BME280;7717;47.792;12.076;2023-03-14T09:42:42;94621.72;;;9.35;100.00
15229;BME280;7717;47.792;12.076;2023-03-14T09:45:26;94623.56;;;9.30;100.00
15229;BME280;7717;47.792;12.076;2023-03-14T09:47:53;94636.25;;;9.33;100.00
15229;BME280;7717;47.792;12.076;2023-03-14T09:50:19;94617.63;;;9.30;100.00
15229;BME280;7717;47.792;12.076;2023-03-14T09:52:48;94632.72;;;9.37;100.00
15229;BME280;7717;47.792;12.076;2023-03-14T09:55:20;94630.28;;;9.67;100.00
15229;BME280;7717;47.792;12.076;2023-03-14T09:57:47;94634.63;;;9.64;100.00
15229;BME280;7717;47.792;12.076;2023-03-14T10:00:25;94641.53;;;9.60;100.00
15229;BME280;7717;47.792;12.076;2023-03-14T10:03:21;94645.84;;;9.91;100.00
15229;BME280;7717;47.792;12.076;2023-03-14T10:05:47;94641.56;;;9.91;100.00
15229;BME280;7717;47.792;12.076;2023-03-14T10:08:13;94638.13;;;9.93;100.00
15229;BME280;7717;47.792;12.076;2023-03-14T10:10:40;94639.41;;;10.07;100.00
15229;BME280;7717;47.792;12.076;2023-03-14T10:13:26;94620.78;;;10.35;100.00
15229;BME280;7717;47.792;12.076;2023-03-14T10:16:03;94610.78;;;10.56;100.00
15229;BME280;7717;47.792;12.076;2023-03-14T10:18:32;94604.47;;;10.39;100.00
15229;BME280;7717;47.792;12.076;2023-03-14T10:23:33;94596.06;;;10.34;100.00
15229;BME280;7717;47.792;12.076;2023-03-14T10:28:33;94577.75;;;10.18;100.00
15229;BME280;7717;47.792;12.076;2023-03-14T10:31:00;94574.00;;;10.02;100.00
15229;BME280;7717;47.792;12.076;2023-03-14T10:33:28;94572.78;;;9.84;100.00
15229;BME280;7717;47.792;12.076;2023-03-14T10:38:40;94576.31;;;9.14;100.00
15229;BME280;7717;47.792;12.076;2023-03-14T10:41:24;94567.03;;;9.44;100.00
15229;BME280;7717;47.792;12.076;2023-03-14T10:43:54;94556.00;;;9.09;100.00
15229;BME280;7717;47.792;12.076;2023-03-14T10:46:23;94552.78;;;9.03;100.00
15229;BME280;7717;47.792;12.076;2023-03-14T10:48:49;94561.47;;;9.30;100.00
15229;BME280;7717;47.792;12.076;2023-03-14T10:53:58;94563.13;;;8.96;100.00
15229;BME280;7717;47.792;12.076;2023-03-14T10:56:25;94565.91;;;8.87;100.00
15229;BME280;7717;47.792;12.076;2023-03-14T10:58:57;94574.72;;;9.10;100.00
15229;BME280;7717;47.792;12.076;2023-03-14T11:07:59;94551.53;;;9.19;100.00
15229;BME280;7717;47.792;12.076;2023-03-14T11:10:40;94562.19;;;9.33;100.00
15229;BME280;7717;47.792;12.076;2023-03-14T11:16:46;94551.00;;;9.37;100.00
15229;BME280;7717;47.792;12.076;2023-03-14T11:35:22;94470.00;;;14.30;100.00
15229;BME280;7717;47.792;12.076;2023-03-14T11:37:56;94505.94;;;13.35;100.00
15229;BME280;7717;47.792;12.076;2023-03-14T11:40:27;94506.88;;;13.12;100.00
15229;BME280;7717;47.792;12.076;2023-03-14T11:42:59;94481.53;;;14.77;100.00
15229;BME280;7717;47.792;12.076;2023-03-14T11:45:39;94434.69;;;15.88;96.17
15229;BME280;7717;47.792;12.076;2023-03-14T11:48:23;94412.59;;;17.36;90.26
15229;BME280;7717;47.792;12.076;2023-03-14T11:50:52;94477.16;;;16.30;92.59
15229;BME280;7717;47.792;12.076;2023-03-14T11:55:52;94457.69;;;20.16;90.52
15229;BME280;7717;47.792;12.076;2023-03-14T11:58:28;94407.31;;;19.42;82.39
15229;BME280;7717;47.792;12.076;2023-03-14T12:00:56;94498.47;;;18.56;87.90
15229;BME280;7717;47.792;12.076;2023-03-14T12:03:36;94454.00;;;16.29;83.97
15229;BME280;7717;47.792;12.076;2023-03-14T12:08:58;94512.19;;;15.52;89.40
15229;BME280;7717;47.792;12.076;2023-03-14T12:11:44;94504.22;;;14.13;90.91
15229;BME280;7717;47.792;12.076;2023-03-14T12:14:33;94490.53;;;14.13;92.61
15229;BME280;7717;47.792;12.076;2023-03-14T12:19:43;94514.44;;;14.15;97.70
15229;BME280;7717;47.792;12.076;2023-03-14T12:22:24;94505.44;;;12.84;96.98
15229;BME280;7717;47.792;12.076;2023-03-14T12:30:58;94510.66;;;12.38;100.00
15229;BME280;7717;47.792;12.076;2023-03-14T12:35:42;94485.50;;;11.79;100.00
15229;BME280;7717;47.792;12.076;2023-03-14T12:41:42;94488.94;;;12.69;100.00
15229;BME280;7717;47.792;12.076;2023-03-14T12:49:53;94481.94;;;12.73;100.00
15229;BME280;7717;47.792;12.076;2023-03-14T12:52:33;94480.78;;;13.21;100.00
15229;BME280;7717;47.792;12.076;2023-03-14T12:58:00;94480.41;;;13.30;99.81
15229;BME280;7717;47.792;12.076;2023-03-14T13:00:34;94495.50;;;13.18;100.00
15229;BME280;7717;47.792;12.076;2023-03-14T13:03:19;94492.78;;;13.00;100.00
15229;BME280;7717;47.792;12.076;2023-03-14T13:05:58;94485.28;;;12.53;100.00
15229;BME280;7717;47.792;12.076;2023-03-14T13:08:41;94495.03;;;12.22;100.00
15229;BME280;7717;47.792;12.076;2023-03-14T13:11:19;94497.81;;;12.16;100.00
15229;BME280;7717;47.792;12.076;2023-03-14T13:13:49;94504.81;;;12.35;100.00
15229;BME280;7717;47.792;12.076;2023-03-14T13:16:20;94501.16;;;12.63;100.00
15229;BME280;7717;47.792;12.076;2023-03-14T13:18:48;94500.38;;;12.60;100.00
15229;BME280;7717;47.792;12.076;2023-03-14T13:21:22;94502.31;;;12.55;100.00
15229;BME280;7717;47.792;12.076;2023-03-14T13:23:59;94508.84;;;12.18;100.00
15229;BME280;7717;47.792;12.076;2023-03-14T13:26:32;94525.81;;;12.22;100.00
15229;BME280;7717;47.792;12.076;2023-03-14T13:28:59;94534.09;;;11.58;100.00
15229;BME280;7717;47.792;12.076;2023-03-14T13:31:25;94549.78;;;11.24;100.00
15229;BME280;7717;47.792;12.076;2023-03-14T13:34:02;94547.44;;;10.64;100.00
15229;BME280;7717;47.792;12.076;2023-03-14T13:36:30;94576.59;;;10.87;100.00
15229;BME280;7717;47.792;12.076;2023-03-14T13:38:58;94596.09;;;10.62;100.00
15229;BME280;7717;47.792;12.076;2023-03-14T13:41:24;94583.88;;;10.72;100.00
15229;BME280;7717;47.792;12.076;2023-03-14T13:43:51;94565.25;;;10.94;100.00
15229;BME280;7717;47.792;12.076;2023-03-14T13:46:21;94567.66;;;11.50;100.00
15229;BME280;7717;47.792;12.076;2023-03-14T13:48:49;94577.28;;;11.94;100.00
15229;BME280;7717;47.792;12.076;2023-03-14T13:51:20;94557.38;;;12.01;100.00
15229;BME280;7717;47.792;12.076;2023-03-14T13:53:51;94578.41;;;11.85;100.00
15229;BME280;7717;47.792;12.076;2023-03-14T13:56:25;94584.69;;;11.77;100.00
15229;BME280;7717;47.792;12.076;2023-03-14T13:58:51;94592.28;;;12.05;100.00
15229;BME280;7717;47.792;12.076;2023-03-14T14:03:44;94605.66;;;12.37;100.00
15229;BME280;7717;47.792;12.076;2023-03-14T14:06:25;94614.44;;;12.30;100.00
15229;BME280;7717;47.792;12.076;2023-03-14T14:08:53;94618.69;;;12.07;100.00
15229;BME280;7717;47.792;12.076;2023-03-14T14:14:00;94640.31;;;12.00;100.00
15229;BME280;7717;47.792;12.076;2023-03-14T14:16:27;94645.78;;;11.64;100.00